createdAt,value
2022-09-06T00:02:01.113Z,14.51
2022-09-06T00:04:28.905Z,14.51
2022-09-06T00:06:55.817Z,14.52
2022-09-06T00:09:22.465Z,14.53
2022-09-06T00:11:49.095Z,14.52
2022-09-06T00:14:16.657Z,14.52
2022-09-06T00:16:43.598Z,14.52
2022-09-06T00:19:10.436Z,14.52
2022-09-06T00:21:37.071Z,14.52
2022-09-06T00:24:03.939Z,14.51
2022-09-06T00:26:30.655Z,14.52
2022-09-06T00:28:57.814Z,14.50
2022-09-06T00:31:26.168Z,14.50
2022-09-06T00:33:52.914Z,14.49
2022-09-06T00:36:21.216Z,14.48
2022-09-06T00:38:47.955Z,14.47
2022-09-06T00:41:16.337Z,14.45
2022-09-06T00:43:43.576Z,14.43
2022-09-06T00:46:14.078Z,14.39
2022-09-06T00:48:41.350Z,14.36
2022-09-06T00:51:11.562Z,14.32
2022-09-06T00:53:38.508Z,14.28
2022-09-06T00:56:05.775Z,14.24
2022-09-06T00:58:32.706Z,14.18
2022-09-06T01:00:59.190Z,14.13
2022-09-06T01:03:26.417Z,14.07
2022-09-06T01:06:10.860Z,14.02
2022-09-06T01:09:00.428Z,13.96
2022-09-06T01:11:52.377Z,13.89
2022-09-06T01:14:40.414Z,13.83
2022-09-06T01:17:55.175Z,13.78
2022-09-06T01:20:50.997Z,13.71
2022-09-06T01:23:48.760Z,13.64
2022-09-06T01:27:01.996Z,13.58
2022-09-06T01:30:03.037Z,13.51
2022-09-06T01:32:35.611Z,13.44
2022-09-06T01:35:34.913Z,13.39
2022-09-06T01:38:02.276Z,13.34
2022-09-06T01:40:29.410Z,13.30
2022-09-06T01:42:57.192Z,13.28
2022-09-06T01:45:39.797Z,13.26
2022-09-06T01:48:12.075Z,13.22
2022-09-06T01:50:57.464Z,13.20
2022-09-06T01:54:05.015Z,13.16
2022-09-06T01:57:00.554Z,13.12
2022-09-06T01:59:39.152Z,13.08
2022-09-06T02:02:28.167Z,13.04
2022-09-06T02:05:04.499Z,13.00
2022-09-06T02:07:34.586Z,12.95
2022-09-06T02:10:12.860Z,12.90
2022-09-06T02:12:41.812Z,12.82
2022-09-06T02:15:18.892Z,12.77
2022-09-06T02:17:53.611Z,12.73
2022-09-06T02:20:25.406Z,12.69
2022-09-06T02:22:53.352Z,12.66
2022-09-06T02:25:27.107Z,12.64
2022-09-06T02:27:55.034Z,12.62
2022-09-06T02:30:21.968Z,12.61
2022-09-06T02:33:12.476Z,12.60
2022-09-06T02:35:44.388Z,12.59
2022-09-06T02:38:11.162Z,12.56
2022-09-06T02:40:38.107Z,12.51
2022-09-06T02:43:05.376Z,12.46
2022-09-06T02:45:32.198Z,12.40
2022-09-06T02:47:58.851Z,12.38
2022-09-06T02:50:25.694Z,12.38
2022-09-06T02:53:21.399Z,12.39
2022-09-06T02:55:48.679Z,12.41
2022-09-06T02:58:15.816Z,12.42
2022-09-06T03:00:43.896Z,12.42
2022-09-06T03:03:10.931Z,12.43
2022-09-06T03:05:37.772Z,12.43
2022-09-06T03:08:05.034Z,12.43
2022-09-06T03:10:32.081Z,12.43
2022-09-06T03:12:59.114Z,12.42
2022-09-06T03:15:25.756Z,12.42
2022-09-06T03:17:52.494Z,12.42
2022-09-06T03:20:19.232Z,12.41
2022-09-06T03:22:46.070Z,12.40
2022-09-06T03:25:12.816Z,12.39
2022-09-06T03:27:39.440Z,12.37
2022-09-06T03:30:06.998Z,12.37
2022-09-06T03:32:33.861Z,12.36
2022-09-06T03:35:00.593Z,12.35
2022-09-06T03:37:27.856Z,12.33
2022-09-06T03:39:54.699Z,12.33
2022-09-06T03:42:21.832Z,12.31
2022-09-06T03:44:48.576Z,12.31
2022-09-06T03:47:19.282Z,12.33
2022-09-06T03:49:47.306Z,12.35
2022-09-06T03:52:14.947Z,12.38
2022-09-06T03:54:42.007Z,12.41
2022-09-06T03:57:09.131Z,12.46
2022-09-06T03:59:36.188Z,12.49
2022-09-06T04:02:03.765Z,12.52
2022-09-06T04:04:30.572Z,12.56
2022-09-06T04:06:57.110Z,12.57
2022-09-06T04:09:23.945Z,12.59
2022-09-06T04:11:50.385Z,12.60
2022-09-06T04:14:17.242Z,12.61
2022-09-06T04:16:43.824Z,12.60
2022-09-06T04:19:10.599Z,12.61
2022-09-06T04:21:37.132Z,12.61
2022-09-06T04:24:03.786Z,12.62
2022-09-06T04:26:30.523Z,12.62
2022-09-06T04:28:57.053Z,12.63
2022-09-06T04:31:23.677Z,12.64
2022-09-06T04:33:50.252Z,12.65
2022-09-06T04:36:16.979Z,12.66
2022-09-06T04:38:44.626Z,12.67
2022-09-06T04:41:13.881Z,12.68
2022-09-06T04:43:40.294Z,12.67
2022-09-06T04:46:25.528Z,12.67
2022-09-06T04:48:53.504Z,12.68
2022-09-06T04:51:21.612Z,12.71
2022-09-06T04:53:48.310Z,12.73
2022-09-06T04:56:17.813Z,12.75
2022-09-06T04:58:45.680Z,12.77
2022-09-06T05:01:12.565Z,12.80
2022-09-06T05:03:39.161Z,12.85
2022-09-06T05:06:31.899Z,12.89
2022-09-06T05:08:58.320Z,12.91
2022-09-06T05:11:24.806Z,12.95
2022-09-06T05:13:51.417Z,12.99
2022-09-06T05:16:18.558Z,13.03
2022-09-06T05:18:45.088Z,13.06
2022-09-06T05:21:11.840Z,13.11
2022-09-06T05:23:38.379Z,13.17
2022-09-06T05:26:06.038Z,13.23
2022-09-06T05:28:32.883Z,13.29
2022-09-06T05:31:28.757Z,13.34
2022-09-06T05:33:55.869Z,13.41
2022-09-06T05:36:23.200Z,13.46
2022-09-06T05:38:51.170Z,13.50
2022-09-06T05:41:18.223Z,13.57
2022-09-06T05:43:45.466Z,13.62
2022-09-06T05:46:12.415Z,13.67
2022-09-06T05:48:39.462Z,13.74
2022-09-06T05:51:09.083Z,13.80
2022-09-06T05:53:36.527Z,13.86
2022-09-06T05:56:04.293Z,13.93
2022-09-06T05:58:31.148Z,14.00
2022-09-06T06:01:15.313Z,14.07
2022-09-06T06:03:43.380Z,14.14
2022-09-06T06:06:10.208Z,14.21
2022-09-06T06:08:37.304Z,14.28
2022-09-06T06:11:04.081Z,14.35
2022-09-06T06:13:34.747Z,14.42
2022-09-06T06:16:03.006Z,14.50
2022-09-06T06:32:36.312Z,15.17
2022-09-06T06:35:04.695Z,15.22
2022-09-06T06:37:33.844Z,15.18
2022-09-06T06:40:01.181Z,15.13
2022-09-06T06:42:28.694Z,15.09
2022-09-06T06:44:57.985Z,15.04
2022-09-06T06:47:25.274Z,15.01
2022-09-06T06:49:52.733Z,14.97
2022-09-06T06:52:22.096Z,14.94
2022-09-06T06:54:51.271Z,14.91
2022-09-06T06:57:19.669Z,14.88
2022-09-06T06:59:46.925Z,14.87
2022-09-06T07:02:16.313Z,14.88
2022-09-06T07:04:43.789Z,14.88
2022-09-06T07:12:46.295Z,14.96
2022-09-06T07:15:13.557Z,14.99
2022-09-06T07:17:40.815Z,15.02
2022-09-06T07:22:39.911Z,15.10
2022-09-06T07:25:09.699Z,15.14
2022-09-06T07:27:52.369Z,15.18
2022-09-06T07:30:20.874Z,15.23
2022-09-06T07:32:48.799Z,15.25
2022-09-06T07:35:16.413Z,15.26
2022-09-06T07:37:44.791Z,15.28
2022-09-06T07:40:12.591Z,15.31
2022-09-06T07:42:39.944Z,15.35
2022-09-06T07:45:07.812Z,15.40
2022-09-06T07:53:15.685Z,15.50
2022-09-06T07:55:48.016Z,15.52
2022-09-06T07:58:15.368Z,15.56
2022-09-06T08:00:43.144Z,15.60
2022-09-06T08:03:10.698Z,15.66
2022-09-06T08:11:15.467Z,15.90
2022-09-06T08:13:43.218Z,15.98
2022-09-06T08:16:11.726Z,16.06
2022-09-06T08:18:39.057Z,16.15
2022-09-06T08:21:13.349Z,16.27
2022-09-06T08:23:44.930Z,16.41
2022-09-06T08:26:12.379Z,16.52
2022-09-06T08:28:39.735Z,16.65
2022-09-06T08:31:15.878Z,16.77
2022-09-06T08:33:44.045Z,16.93
2022-09-06T08:36:11.941Z,17.13
2022-09-06T08:38:40.115Z,17.32
2022-09-06T08:41:12.279Z,17.48
2022-09-06T08:43:40.717Z,17.59
2022-09-06T08:46:09.685Z,17.69
2022-09-06T08:48:40.086Z,17.81
2022-09-06T08:51:33.380Z,17.91
2022-09-06T08:54:06.221Z,18.01
2022-09-06T08:56:39.310Z,18.11
2022-09-06T08:59:12.454Z,18.20
2022-09-06T09:01:55.202Z,18.29
2022-09-06T09:04:24.727Z,18.36
2022-09-06T09:06:57.303Z,18.42
2022-09-06T09:09:25.376Z,18.46
2022-09-06T09:11:52.935Z,18.51
2022-09-06T09:14:35.727Z,18.54
2022-09-06T09:17:17.124Z,18.55
2022-09-06T09:19:44.795Z,18.59
2022-09-06T09:22:13.975Z,18.68
2022-09-06T09:24:41.249Z,18.80
2022-09-06T09:27:11.568Z,18.85
2022-09-06T09:32:54.194Z,19.00
2022-09-06T09:35:27.757Z,19.06
2022-09-06T09:38:11.838Z,19.11
2022-09-06T09:40:41.942Z,19.17
2022-09-06T09:43:28.784Z,19.19
2022-09-06T09:46:23.560Z,19.18
2022-09-06T09:49:04.644Z,19.17
2022-09-06T09:51:34.988Z,19.18
2022-09-06T09:54:11.356Z,19.20
2022-09-06T09:56:41.350Z,19.25
2022-09-06T09:59:24.291Z,19.31
2022-09-06T10:01:56.278Z,19.39
2022-09-06T10:04:44.342Z,19.47
2022-09-06T10:07:15.214Z,19.57
2022-09-06T10:09:44.397Z,19.63
2022-09-06T10:12:29.818Z,19.65
2022-09-06T10:14:59.495Z,19.66
2022-09-06T10:17:27.564Z,19.69
2022-09-06T10:19:55.031Z,19.71
2022-09-06T10:22:32.727Z,19.68
2022-09-06T10:25:33.364Z,19.69
2022-09-06T10:28:15.760Z,19.69
2022-09-06T10:31:09.284Z,19.72
2022-09-06T10:33:49.078Z,19.79
2022-09-06T10:36:23.397Z,19.86
2022-09-06T10:39:34.081Z,19.92
2022-09-06T10:42:04.076Z,19.98
2022-09-06T10:44:56.115Z,19.99
2022-09-06T10:47:29.832Z,20.04
2022-09-06T10:49:59.752Z,20.10
2022-09-06T10:52:41.316Z,20.17
2022-09-06T10:55:13.158Z,20.30
2022-09-06T11:00:39.830Z,20.55
2022-09-06T11:06:22.490Z,20.66
2022-09-06T11:08:58.300Z,20.68
2022-09-06T11:11:49.358Z,20.70
2022-09-06T11:14:17.991Z,20.71
2022-09-06T11:17:00.765Z,20.73
2022-09-06T11:19:32.711Z,20.77
2022-09-06T11:22:12.547Z,20.85
2022-09-06T11:25:30.692Z,20.93
2022-09-06T11:28:00.811Z,21.10
2022-09-06T11:30:30.161Z,21.20
2022-09-06T11:33:23.621Z,21.29
2022-09-06T11:35:51.443Z,21.38
2022-09-06T11:38:27.395Z,21.43
2022-09-06T11:40:59.265Z,21.44
2022-09-06T11:43:44.135Z,21.47
2022-09-06T11:46:11.553Z,21.53
2022-09-06T11:49:23.891Z,21.62
2022-09-06T11:51:51.136Z,21.75
2022-09-06T11:54:25.300Z,21.80
2022-09-06T11:56:56.450Z,21.82
2022-09-06T11:59:35.150Z,21.84
2022-09-06T12:02:06.274Z,21.84
2022-09-06T12:05:01.002Z,21.86
2022-09-06T12:07:29.446Z,21.90
2022-09-06T12:09:57.001Z,21.99
2022-09-06T12:12:41.237Z,22.10
2022-09-06T12:15:43.762Z,22.18
2022-09-06T12:18:11.078Z,22.25
2022-09-06T12:20:53.213Z,22.32
2022-09-06T12:23:35.797Z,22.44
2022-09-06T12:26:07.435Z,22.57
2022-09-06T12:28:41.664Z,22.67
2022-09-06T12:31:35.643Z,22.81
2022-09-06T12:34:13.235Z,22.99
2022-09-06T12:36:54.287Z,23.13
2022-09-06T12:39:24.703Z,23.28
2022-09-06T12:42:02.842Z,23.34
2022-09-06T12:44:34.601Z,23.34
2022-09-06T12:47:19.773Z,23.37
2022-09-06T12:49:47.125Z,23.40
2022-09-06T12:52:16.939Z,23.50
2022-09-06T12:54:47.417Z,23.59
2022-09-06T12:57:26.641Z,23.64
2022-09-06T12:59:55.915Z,23.67
2022-09-06T13:02:39.017Z,23.67
2022-09-06T13:05:09.163Z,23.64
2022-09-06T13:07:41.513Z,23.61
2022-09-06T13:10:09.762Z,23.61
2022-09-06T13:12:42.764Z,23.65
2022-09-06T13:15:25.232Z,23.68
2022-09-06T13:17:54.179Z,23.74
2022-09-06T13:20:30.063Z,23.80
2022-09-06T13:23:21.545Z,23.80
2022-09-06T13:25:50.761Z,23.82
2022-09-06T13:28:29.536Z,23.84
2022-09-06T13:31:29.897Z,23.82
2022-09-06T13:33:58.361Z,23.76
2022-09-06T13:36:31.335Z,23.75
2022-09-06T13:39:00.226Z,23.77
2022-09-06T13:41:27.300Z,23.74
2022-09-06T13:44:08.375Z,23.72
2022-09-06T13:46:38.848Z,23.70
2022-09-06T13:49:06.759Z,23.73
2022-09-06T13:51:34.944Z,23.77
2022-09-06T13:54:06.316Z,23.76
2022-09-06T13:56:33.652Z,23.77
2022-09-06T13:59:02.569Z,23.79
2022-09-06T14:01:30.172Z,23.87
2022-09-06T14:03:58.070Z,23.95
2022-09-06T14:06:25.527Z,23.99
2022-09-06T14:09:09.013Z,24.01
2022-09-06T14:11:37.545Z,23.99
2022-09-06T14:14:05.749Z,23.94
2022-09-06T14:16:34.899Z,23.92
2022-09-06T14:19:03.191Z,23.89
2022-09-06T14:21:30.553Z,23.82
2022-09-06T14:24:03.351Z,23.73
2022-09-06T14:26:32.011Z,23.66
2022-09-06T14:29:00.603Z,23.66
2022-09-06T14:31:29.113Z,23.66
2022-09-06T14:33:57.452Z,23.63
2022-09-06T14:36:29.512Z,23.59
2022-09-06T14:38:58.609Z,23.57
2022-09-06T14:41:26.891Z,23.55
2022-09-06T14:43:55.990Z,23.51
2022-09-06T14:46:24.982Z,23.48
2022-09-06T14:49:10.400Z,23.45
2022-09-06T14:51:39.017Z,23.41
2022-09-06T14:54:09.363Z,23.39
2022-09-06T14:56:38.944Z,23.37
2022-09-06T14:59:07.001Z,23.34
2022-09-06T15:01:38.369Z,23.35
2022-09-06T15:04:08.398Z,23.37
2022-09-06T15:06:37.316Z,23.38
2022-09-06T15:09:11.736Z,23.40
2022-09-06T15:11:42.186Z,23.39
2022-09-06T15:14:17.528Z,23.37
2022-09-06T15:16:46.157Z,23.31
2022-09-06T15:19:14.229Z,23.24
2022-09-06T15:21:42.397Z,23.17
2022-09-06T15:24:12.114Z,23.11
2022-09-06T15:26:40.705Z,23.06
2022-09-06T15:29:09.412Z,23.03
2022-09-06T15:31:38.389Z,22.99
2022-09-06T15:34:06.676Z,22.94
2022-09-06T15:36:34.039Z,22.89
2022-09-06T15:39:02.713Z,22.83
2022-09-06T15:41:32.722Z,22.77
2022-09-06T15:44:10.767Z,22.71
2022-09-06T15:46:48.636Z,22.66
2022-09-06T15:49:23.303Z,22.59
2022-09-06T15:51:53.679Z,22.51
2022-09-06T15:54:44.790Z,22.42
2022-09-06T15:57:13.756Z,22.36
2022-09-06T15:59:41.970Z,22.29
2022-09-06T16:02:10.329Z,22.20
2022-09-06T16:04:37.482Z,22.12
2022-09-06T16:07:04.845Z,22.05
2022-09-06T16:09:32.185Z,21.97
2022-09-06T16:11:59.337Z,21.89
2022-09-06T16:14:28.596Z,21.82
2022-09-06T16:16:58.810Z,21.76
2022-09-06T16:19:28.668Z,21.71
2022-09-06T16:21:55.932Z,21.66
2022-09-06T16:24:23.812Z,21.63
2022-09-06T16:26:51.246Z,21.58
2022-09-06T16:29:19.521Z,21.55
2022-09-06T16:31:47.616Z,21.52
2022-09-06T16:34:15.671Z,21.48
2022-09-06T16:36:43.139Z,21.46
2022-09-06T16:39:11.200Z,21.44
2022-09-06T16:41:41.429Z,21.42
2022-09-06T16:44:10.821Z,21.41
2022-09-06T16:46:40.428Z,21.39
2022-09-06T16:49:08.003Z,21.34
2022-09-06T16:51:35.869Z,21.28
2022-09-06T16:54:03.668Z,21.20
2022-09-06T16:56:35.977Z,21.11
2022-09-06T16:59:08.665Z,21.02
2022-09-06T17:01:36.931Z,20.94
2022-09-06T17:04:04.969Z,20.87
2022-09-06T17:06:34.537Z,20.79
2022-09-06T17:09:01.906Z,20.71
2022-09-06T17:11:29.644Z,20.61
2022-09-06T17:13:58.022Z,20.51
2022-09-06T17:16:45.105Z,20.40
2022-09-06T17:19:14.027Z,20.27
2022-09-06T17:21:41.596Z,20.19
2022-09-06T17:24:09.655Z,20.13
2022-09-06T17:26:39.165Z,20.07
2022-09-06T17:29:07.801Z,19.99
2022-09-06T17:31:36.947Z,19.93
2022-09-06T17:34:04.716Z,19.86
2022-09-06T17:36:33.614Z,19.81
2022-09-06T17:39:24.422Z,19.76
2022-09-06T17:41:54.056Z,19.71
2022-09-06T17:44:26.197Z,19.65
2022-09-06T17:47:11.938Z,19.59
2022-09-06T17:49:40.212Z,19.50
2022-09-06T17:52:07.808Z,19.43
2022-09-06T17:54:35.911Z,19.35
2022-09-06T17:57:03.431Z,19.28
2022-09-06T17:59:35.345Z,19.20
2022-09-06T18:02:04.252Z,19.13
2022-09-06T18:04:31.876Z,19.04
2022-09-06T18:06:59.705Z,18.96
2022-09-06T18:09:27.280Z,18.88
2022-09-06T18:11:55.249Z,18.81
2022-09-06T18:14:23.095Z,18.74
2022-09-06T18:16:53.182Z,18.68
2022-09-06T18:19:22.000Z,18.62
2022-09-06T18:21:49.883Z,18.57
2022-09-06T18:24:18.774Z,18.53
2022-09-06T18:26:48.374Z,18.49
2022-09-06T18:29:20.028Z,18.46
2022-09-06T18:31:48.697Z,18.43
2022-09-06T18:34:17.503Z,18.42
2022-09-06T18:36:45.383Z,18.39
2022-09-06T18:39:14.147Z,18.37
2022-09-06T18:42:00.567Z,18.35
2022-09-06T18:44:33.282Z,18.31
2022-09-06T18:47:06.771Z,18.27
2022-09-06T18:49:35.239Z,18.24
2022-09-06T18:52:04.865Z,18.21
2022-09-06T18:54:33.629Z,18.18
2022-09-06T18:57:01.566Z,18.14
2022-09-06T18:59:29.544Z,18.10
2022-09-06T19:01:57.658Z,18.03
2022-09-06T19:04:25.961Z,17.97
2022-09-06T19:06:53.976Z,17.91
2022-09-06T19:09:22.041Z,17.85
2022-09-06T19:11:54.311Z,17.80
2022-09-06T19:14:25.657Z,17.74
2022-09-06T19:16:55.157Z,17.69
2022-09-06T19:19:24.045Z,17.64
2022-09-06T19:21:52.042Z,17.59
2022-09-06T19:24:23.457Z,17.54
2022-09-06T19:26:53.629Z,17.51
2022-09-06T19:29:21.864Z,17.47
2022-09-06T19:31:50.820Z,17.45
2022-09-06T19:34:19.852Z,17.44
2022-09-06T19:36:48.636Z,17.43
2022-09-06T19:39:17.635Z,17.41
2022-09-06T19:41:47.760Z,17.39
2022-09-06T19:44:17.459Z,17.36
2022-09-06T19:46:47.920Z,17.33
2022-09-06T19:49:17.782Z,17.30
2022-09-06T19:51:47.137Z,17.26
2022-09-06T19:54:16.460Z,17.24
2022-09-06T19:56:45.233Z,17.22
2022-09-06T19:59:14.382Z,17.20
2022-09-06T20:01:43.524Z,17.18
2022-09-06T20:04:12.376Z,17.15
2022-09-06T20:06:40.482Z,17.12
2022-09-06T20:09:10.101Z,17.10
2022-09-06T20:11:40.754Z,17.06
2022-09-06T20:14:09.630Z,17.01
2022-09-06T20:16:41.390Z,16.97
2022-09-06T20:19:10.656Z,16.93
2022-09-06T20:21:38.596Z,16.90
2022-09-06T20:24:06.849Z,16.86
2022-09-06T20:26:34.223Z,16.83
2022-09-06T20:29:03.432Z,16.79
2022-09-06T20:31:32.365Z,16.76
2022-09-06T20:34:01.299Z,16.71
2022-09-06T20:36:29.595Z,16.66
2022-09-06T20:38:57.872Z,16.63
2022-09-06T20:41:27.188Z,16.58
2022-09-06T20:43:57.349Z,16.54
2022-09-06T20:46:27.856Z,16.49
2022-09-06T20:48:58.677Z,16.45
2022-09-06T20:51:26.824Z,16.41
2022-09-06T20:53:58.761Z,16.38
2022-09-06T20:56:32.378Z,16.35
2022-09-06T20:59:01.862Z,16.31
2022-09-06T21:01:31.538Z,16.27
2022-09-06T21:04:00.486Z,16.23
2022-09-06T21:06:29.578Z,16.20
2022-09-06T21:08:57.933Z,16.15
2022-09-06T21:11:26.207Z,16.11
2022-09-06T21:13:56.218Z,16.06
2022-09-06T21:16:25.620Z,16.02
2022-09-06T21:18:57.412Z,15.97
2022-09-06T21:21:25.831Z,15.91
2022-09-06T21:23:53.472Z,15.86
2022-09-06T21:26:22.139Z,15.81
2022-09-06T21:28:50.213Z,15.76
2022-09-06T21:31:22.538Z,15.70
2022-09-06T21:33:55.360Z,15.63
2022-09-06T21:36:31.423Z,15.56
2022-09-06T21:39:03.573Z,15.50
2022-09-06T21:41:31.981Z,15.43
2022-09-06T21:44:00.993Z,15.38
2022-09-06T21:46:34.434Z,15.36
2022-09-06T21:49:07.772Z,15.32
2022-09-06T21:51:35.522Z,15.29
2022-09-06T21:54:06.268Z,15.25
2022-09-06T21:56:34.450Z,15.22
2022-09-06T21:59:02.194Z,15.18
2022-09-06T22:01:32.101Z,15.15
2022-09-06T22:04:00.498Z,15.11
2022-09-06T22:06:30.621Z,15.09
2022-09-06T22:08:59.352Z,15.06
2022-09-06T22:11:32.368Z,15.03
2022-09-06T22:14:01.513Z,14.99
2022-09-06T22:16:29.799Z,14.95
2022-09-06T22:18:57.105Z,14.92
2022-09-06T22:21:25.171Z,14.89
2022-09-06T22:23:57.634Z,14.87
2022-09-06T22:26:26.953Z,14.84
2022-09-06T22:28:59.113Z,14.82
2022-09-06T22:31:28.173Z,14.81
2022-09-06T22:33:56.147Z,14.81
2022-09-06T22:36:26.633Z,14.81
2022-09-06T22:38:57.928Z,14.81
2022-09-06T22:41:27.426Z,14.79
2022-09-06T22:43:55.527Z,14.78
2022-09-06T22:46:23.507Z,14.76
2022-09-06T22:48:50.851Z,14.74
2022-09-06T22:51:18.365Z,14.73
2022-09-06T22:53:45.871Z,14.73
2022-09-06T22:56:13.007Z,14.72
2022-09-06T22:58:40.275Z,14.71
2022-09-06T23:01:10.784Z,14.72
2022-09-06T23:03:38.636Z,14.74
2022-09-06T23:06:07.153Z,14.76
2022-09-06T23:08:36.137Z,14.78
2022-09-06T23:11:08.835Z,14.81
2022-09-06T23:13:36.089Z,14.84
2022-09-06T23:16:07.860Z,14.85
2022-09-06T23:18:35.803Z,14.86
2022-09-06T23:21:13.863Z,14.87
2022-09-06T23:23:41.974Z,14.87
2022-09-06T23:26:13.129Z,14.88
2022-09-06T23:28:40.480Z,14.89
2022-09-06T23:31:09.881Z,14.88
2022-09-06T23:33:37.632Z,14.89
2022-09-06T23:36:06.247Z,14.88
2022-09-06T23:38:34.728Z,14.88
2022-09-06T23:41:02.580Z,14.88
2022-09-06T23:43:30.327Z,14.88
2022-09-06T23:45:57.800Z,14.89
2022-09-06T23:48:25.378Z,14.88
2022-09-06T23:50:52.920Z,14.89
2022-09-06T23:53:20.899Z,14.88
2022-09-06T23:55:48.560Z,14.88
2022-09-06T23:58:16.122Z,14.87
